createdAt,value
2023-04-12T00:01:01.136Z,99665.20
2023-04-12T00:06:10.485Z,99665.75
2023-04-12T00:11:14.049Z,99655.29
2023-04-12T00:16:20.178Z,99654.85
2023-04-12T00:21:24.010Z,99659.51
2023-04-12T00:26:47.819Z,99669.98
2023-04-12T00:31:51.508Z,99667.60
2023-04-12T00:36:57.600Z,99666.90
2023-04-12T00:42:21.400Z,99661.03
2023-04-12T00:47:36.915Z,99658.20
2023-04-12T00:52:54.706Z,99648.13
2023-04-12T00:58:01.215Z,99641.73
2023-04-12T01:03:05.696Z,99642.83
2023-04-12T01:09:01.262Z,99643.85
2023-04-12T01:14:14.289Z,99638.70
2023-04-12T01:19:53.868Z,99638.83
2023-04-12T01:26:01.054Z,99653.71
2023-04-12T01:31:09.095Z,99653.52
2023-04-12T01:36:34.846Z,99654.49
2023-04-12T01:41:53.421Z,99664.31
2023-04-12T01:47:20.073Z,99664.90
2023-04-12T01:53:09.047Z,99659.72
2023-04-12T01:59:15.317Z,99659.08
2023-04-12T02:04:20.174Z,99657.81
2023-04-12T02:09:41.003Z,99649.86
2023-04-12T02:15:08.732Z,99646.90
2023-04-12T02:20:17.678Z,99643.89
2023-04-12T02:25:24.476Z,99641.02
2023-04-12T02:30:31.216Z,99637.78
2023-04-12T02:35:39.549Z,99633.50
2023-04-12T02:40:50.682Z,99632.34
2023-04-12T02:45:54.747Z,99634.14
2023-04-12T02:51:01.374Z,99640.73
2023-04-12T02:56:15.924Z,99651.88
2023-04-12T03:01:26.884Z,99650.95
2023-04-12T03:07:06.855Z,99654.89
2023-04-12T03:12:16.354Z,99653.64
2023-04-12T03:17:28.495Z,99655.47
2023-04-12T03:22:32.322Z,99655.48
2023-04-12T03:27:38.631Z,99657.61
2023-04-12T03:32:45.158Z,99661.89
2023-04-12T03:37:48.484Z,99657.72
2023-04-12T03:42:55.383Z,99657.48
2023-04-12T03:47:58.765Z,99656.88
2023-04-12T03:53:03.073Z,99662.35
2023-04-12T03:58:10.349Z,99662.97
2023-04-12T04:03:18.528Z,99659.14
2023-04-12T04:08:29.839Z,99656.67
2023-04-12T04:13:33.656Z,99660.70
2023-04-12T04:18:40.457Z,99664.40
2023-04-12T04:23:45.588Z,99668.86
2023-04-12T04:28:50.439Z,99672.27
2023-04-12T04:33:59.014Z,99671.16
2023-04-12T04:39:16.571Z,99677.34
2023-04-12T04:44:21.910Z,99678.67
2023-04-12T04:49:44.026Z,99684.02
2023-04-12T04:55:13.172Z,99694.14
2023-04-12T05:00:20.180Z,99700.71
2023-04-12T05:05:30.511Z,99698.94
2023-04-12T05:10:46.382Z,99695.90
2023-04-12T05:15:50.628Z,99697.95
2023-04-12T05:20:54.309Z,99708.27
2023-04-12T05:25:58.004Z,99706.41
2023-04-12T05:31:01.948Z,99704.19
2023-04-12T05:36:34.724Z,99702.20
2023-04-12T05:41:39.535Z,99705.99
2023-04-12T05:46:42.999Z,99708.72
2023-04-12T05:51:52.330Z,99702.69
2023-04-12T05:57:08.947Z,99708.19
2023-04-12T06:02:20.051Z,99710.44
2023-04-12T06:07:24.834Z,99709.89
2023-04-12T06:12:38.604Z,99705.99
2023-04-12T06:18:02.460Z,99705.22
2023-04-12T06:23:16.278Z,99704.73
2023-04-12T06:28:53.508Z,99707.98
2023-04-12T06:34:01.487Z,99705.41
2023-04-12T06:39:12.216Z,99707.19
2023-04-12T06:44:23.268Z,99708.02
2023-04-12T06:49:27.301Z,99712.60
2023-04-12T06:54:40.264Z,99715.31
2023-04-12T07:00:04.060Z,99711.77
2023-04-12T07:05:07.805Z,99710.29
2023-04-12T07:10:33.942Z,99712.24
2023-04-12T07:15:37.373Z,99720.03
2023-04-12T07:20:41.006Z,99722.52
2023-04-12T07:26:04.911Z,99730.16
2023-04-12T07:31:11.288Z,99726.70
2023-04-12T07:36:26.531Z,99719.65
2023-04-12T07:41:30.088Z,99724.08
2023-04-12T07:46:42.780Z,99727.39
2023-04-12T07:51:56.492Z,99727.05
2023-04-12T07:57:00.675Z,99732.30
2023-04-12T08:02:06.388Z,99729.08
2023-04-12T08:07:13.119Z,99731.77
2023-04-12T08:12:21.324Z,99728.14
2023-04-12T08:17:27.686Z,99733.64
2023-04-12T08:22:31.482Z,99739.70
2023-04-12T08:27:35.123Z,99743.51
2023-04-12T08:32:41.930Z,99753.86
2023-04-12T08:37:45.613Z,99763.27
2023-04-12T08:42:55.649Z,99756.55
2023-04-12T08:48:04.112Z,99753.84
2023-04-12T08:53:27.958Z,99746.25
2023-04-12T08:58:52.834Z,99724.08
2023-04-12T09:03:56.697Z,99704.97
2023-04-12T09:09:01.695Z,99703.20
2023-04-12T09:14:22.722Z,99701.14
2023-04-12T09:19:40.921Z,99695.73
2023-04-12T09:24:53.531Z,99697.53
2023-04-12T09:30:32.212Z,99698.95
2023-04-12T09:36:19.169Z,99701.25
2023-04-12T09:41:32.139Z,99705.13
2023-04-12T09:46:56.597Z,99705.54
2023-04-12T09:52:20.620Z,99698.11
2023-04-12T09:57:27.788Z,99696.89
2023-04-12T10:02:32.295Z,99694.27
2023-04-12T10:07:46.059Z,99697.63
2023-04-12T10:12:52.344Z,99700.91
2023-04-12T10:17:57.529Z,99697.81
2023-04-12T10:23:01.571Z,99699.13
2023-04-12T10:28:24.148Z,99693.13
2023-04-12T10:33:30.936Z,99703.75
2023-04-12T10:38:46.683Z,99704.91
2023-04-12T10:43:52.118Z,99702.27
2023-04-12T10:48:57.968Z,99699.14
2023-04-12T10:54:07.829Z,99702.73
2023-04-12T10:59:12.571Z,99698.95
2023-04-12T11:04:22.306Z,99691.22
2023-04-12T11:09:45.746Z,99688.98
2023-04-12T11:15:03.960Z,99678.96
2023-04-12T11:20:28.258Z,99679.10
2023-04-12T11:25:32.326Z,99678.23
2023-04-12T11:30:36.370Z,99681.38
2023-04-12T11:35:43.830Z,99677.81
2023-04-12T11:40:48.664Z,99672.46
2023-04-12T11:46:02.445Z,99665.80
2023-04-12T11:51:25.447Z,99654.83
2023-04-12T11:56:29.971Z,99652.23
2023-04-12T12:01:37.906Z,99649.78
2023-04-12T12:06:42.254Z,99644.00
2023-04-12T12:12:06.748Z,99639.27
2023-04-12T12:17:15.557Z,99635.02
2023-04-12T12:22:24.488Z,99624.52
2023-04-12T12:27:31.077Z,99613.14
2023-04-12T12:32:45.349Z,99603.45
2023-04-12T12:37:55.958Z,99596.70
2023-04-12T12:43:00.500Z,99589.98
2023-04-12T12:48:13.415Z,99588.09
2023-04-12T12:53:17.216Z,99584.30
2023-04-12T12:58:28.711Z,99577.25
2023-04-12T13:03:32.907Z,99576.15
2023-04-12T13:08:45.724Z,99566.59
2023-04-12T13:13:49.500Z,99562.55
2023-04-12T13:18:52.910Z,99555.23
2023-04-12T13:24:07.826Z,99546.57
2023-04-12T13:29:14.221Z,99543.20
2023-04-12T13:34:17.724Z,99540.05
2023-04-12T13:39:22.058Z,99537.30
2023-04-12T13:44:27.977Z,99527.80
2023-04-12T13:49:31.566Z,99521.67
2023-04-12T13:54:35.130Z,99526.82
2023-04-12T13:59:38.982Z,99527.59
2023-04-12T14:04:53.518Z,99524.34
2023-04-12T14:09:57.958Z,99524.29
2023-04-12T14:15:04.699Z,99525.02
2023-04-12T14:20:12.839Z,99525.60
2023-04-12T14:25:16.500Z,99526.66
2023-04-12T14:30:19.947Z,99523.52
2023-04-12T14:35:23.399Z,99527.36
2023-04-12T14:40:27.076Z,99530.70
2023-04-12T14:45:30.654Z,99531.02
2023-04-12T14:50:34.357Z,99523.44
2023-04-12T14:55:37.750Z,99520.61
2023-04-12T15:00:41.847Z,99513.85
2023-04-12T15:05:54.339Z,99516.05
2023-04-12T15:10:57.844Z,99523.55
2023-04-12T15:16:20.187Z,99526.70
2023-04-12T15:21:23.636Z,99520.05
2023-04-12T15:26:26.943Z,99513.29
2023-04-12T15:31:30.628Z,99511.48
2023-04-12T15:36:36.746Z,99511.79
2023-04-12T15:41:41.905Z,99507.08
2023-04-12T15:46:53.295Z,99504.88
2023-04-12T15:52:07.356Z,99503.68
2023-04-12T15:57:11.738Z,99503.61
2023-04-12T16:02:15.304Z,99500.54
2023-04-12T16:07:19.038Z,99503.05
2023-04-12T16:12:22.446Z,99501.50
2023-04-12T16:17:25.891Z,99499.48
2023-04-12T16:22:29.409Z,99499.96
2023-04-12T16:27:33.140Z,99499.27
2023-04-12T16:32:37.368Z,99498.69
2023-04-12T16:37:42.618Z,99499.39
2023-04-12T16:42:48.647Z,99505.90
2023-04-12T16:47:52.060Z,99507.56
2023-04-12T16:52:55.828Z,99509.41
2023-04-12T16:57:59.316Z,99508.17
2023-04-12T17:03:03.457Z,99511.41
2023-04-12T17:08:09.738Z,99516.10
2023-04-12T17:13:19.494Z,99518.10
2023-04-12T17:18:24.082Z,99520.50
2023-04-12T17:23:29.849Z,99523.27
2023-04-12T17:28:43.632Z,99525.58
2023-04-12T17:33:47.334Z,99524.46
2023-04-12T17:38:57.226Z,99525.80
2023-04-12T17:44:00.891Z,99521.73
2023-04-12T17:49:06.871Z,99525.36
2023-04-12T17:54:12.826Z,99527.73
2023-04-12T17:59:16.621Z,99529.09
2023-04-12T18:04:23.303Z,99536.23
2023-04-12T18:10:10.387Z,99537.59
2023-04-12T18:15:14.111Z,99540.36
2023-04-12T18:20:21.463Z,99542.02
2023-04-12T18:25:25.118Z,99548.88
2023-04-12T18:30:28.549Z,99548.39
2023-04-12T18:35:32.424Z,99549.19
2023-04-12T18:40:38.074Z,99546.00
2023-04-12T18:45:41.801Z,99544.54
2023-04-12T18:50:51.811Z,99548.92
2023-04-12T18:55:55.287Z,99551.32
2023-04-12T19:00:58.661Z,99550.00
2023-04-12T19:06:04.821Z,99551.34
2023-04-12T19:11:08.290Z,99551.94
2023-04-12T19:16:12.828Z,99543.54
2023-04-12T19:21:19.124Z,99540.54
2023-04-12T19:26:23.519Z,99538.39
2023-04-12T19:31:27.824Z,99525.05
2023-04-12T19:36:51.668Z,99517.91
2023-04-12T19:41:55.102Z,99511.36
2023-04-12T19:47:01.713Z,99512.58
2023-04-12T19:52:05.807Z,99510.42
2023-04-12T19:57:09.448Z,99506.92
2023-04-12T20:02:25.447Z,99502.39
2023-04-12T20:07:29.280Z,99498.77
2023-04-12T20:12:38.230Z,99496.20
2023-04-12T20:17:54.107Z,99495.98
2023-04-12T20:23:00.753Z,99489.63
2023-04-12T20:28:25.850Z,99489.30
2023-04-12T20:33:30.303Z,99485.80
2023-04-12T20:38:34.448Z,99479.79
2023-04-12T20:43:46.629Z,99475.77
2023-04-12T20:49:07.153Z,99477.44
2023-04-12T20:54:20.771Z,99470.33
2023-04-12T20:59:24.291Z,99465.91
2023-04-12T21:04:28.004Z,99462.02
2023-04-12T21:09:47.316Z,99470.28
2023-04-12T21:14:53.399Z,99473.33
2023-04-12T21:19:57.540Z,99474.48
2023-04-12T21:25:01.222Z,99473.75
2023-04-12T21:30:14.767Z,99475.98
2023-04-12T21:35:46.151Z,99474.63
2023-04-12T21:41:12.732Z,99478.73
2023-04-12T21:46:39.137Z,99471.86
2023-04-12T21:51:49.499Z,99470.89
2023-04-12T21:56:56.245Z,99468.05
2023-04-12T22:02:05.415Z,99465.47
2023-04-12T22:07:17.648Z,99461.44
2023-04-12T22:12:32.344Z,99457.27
2023-04-12T22:17:35.862Z,99456.25
2023-04-12T22:22:40.480Z,99454.99
2023-04-12T22:28:09.397Z,99451.35
2023-04-12T22:33:13.828Z,99444.36
2023-04-12T22:38:19.898Z,99444.11
2023-04-12T22:43:24.458Z,99433.73
2023-04-12T22:48:32.356Z,99427.30
2023-04-12T22:53:44.882Z,99423.27
2023-04-12T22:58:50.680Z,99418.77
2023-04-12T23:03:57.482Z,99414.16
2023-04-12T23:09:01.638Z,99410.27
2023-04-12T23:14:08.468Z,99403.44
2023-04-12T23:19:16.697Z,99406.05
2023-04-12T23:24:20.373Z,99398.63
2023-04-12T23:29:26.253Z,99390.45
2023-04-12T23:34:46.575Z,99386.85
2023-04-12T23:40:05.462Z,99385.27
2023-04-12T23:45:12.259Z,99377.91
2023-04-12T23:50:19.469Z,99371.21
2023-04-12T23:55:23.211Z,99367.09
